createdAt,value
2019-03-30T04:46:20.831Z,0.00
2019-03-30T04:47:20.823Z,0.00
2019-03-30T04:48:20.817Z,0.00
2019-03-30T04:49:20.798Z,0.00
2019-03-30T04:50:20.784Z,0.00
2019-03-30T04:51:20.768Z,0.00
2019-03-30T04:52:20.770Z,5.62
2019-03-30T04:53:20.774Z,5.62
2019-03-30T04:54:20.746Z,5.62
2019-03-30T04:55:20.735Z,5.62
2019-03-30T04:56:20.727Z,5.62
2019-03-30T04:57:20.724Z,5.62
2019-03-30T04:58:20.701Z,5.62
2019-03-30T04:59:20.687Z,5.62
2019-03-30T05:00:20.683Z,5.62
2019-03-30T05:01:20.682Z,11.25
2019-03-30T05:02:20.660Z,11.25
2019-03-30T05:03:20.656Z,11.25
2019-03-30T05:04:20.641Z,11.25
2019-03-30T05:05:20.629Z,11.25
2019-03-30T05:06:20.620Z,11.25
2019-03-30T05:07:20.602Z,11.25
2019-03-30T05:08:20.597Z,16.88
2019-03-30T05:09:20.594Z,16.88
2019-03-30T05:10:20.579Z,16.88
2019-03-30T05:11:20.564Z,16.88
2019-03-30T05:12:21.485Z,16.88
2019-03-30T05:13:20.538Z,16.88
2019-03-30T05:14:20.527Z,22.50
2019-03-30T05:15:20.531Z,22.50
2019-03-30T05:16:20.510Z,22.50
2019-03-30T05:17:20.505Z,22.50
2019-03-30T05:18:20.490Z,22.50
2019-03-30T05:19:20.492Z,28.12
2019-03-30T05:20:20.495Z,28.12
2019-03-30T05:21:20.457Z,28.12
2019-03-30T05:22:20.448Z,28.12
2019-03-30T05:23:20.438Z,28.12
2019-03-30T05:24:20.420Z,33.75
2019-03-30T05:25:20.410Z,33.75
2019-03-30T05:26:20.413Z,33.75
2019-03-30T05:27:20.394Z,33.75
2019-03-30T05:28:20.388Z,39.38
2019-03-30T05:29:20.371Z,39.38
2019-03-30T05:30:20.357Z,39.38
2019-03-30T05:31:20.366Z,39.38
2019-03-30T05:32:20.343Z,39.38
2019-03-30T05:33:20.328Z,39.38
2019-03-30T05:34:20.320Z,39.38
2019-03-30T05:35:20.307Z,39.38
2019-03-30T05:36:20.304Z,39.38
2019-03-30T05:37:20.291Z,39.38
2019-03-30T05:38:20.278Z,39.38
2019-03-30T05:39:20.263Z,45.00
2019-03-30T05:40:20.253Z,45.00
2019-03-30T05:41:20.276Z,39.38
2019-03-30T05:42:20.239Z,45.00
2019-03-30T05:43:20.225Z,45.00
2019-03-30T05:44:20.217Z,45.00
2019-03-30T05:45:20.200Z,45.00
2019-03-30T05:46:20.196Z,45.00
2019-03-30T05:47:20.203Z,45.00
2019-03-30T05:48:20.168Z,45.00
2019-03-30T05:49:20.158Z,50.62
2019-03-30T05:50:20.151Z,50.62
2019-03-30T05:51:20.150Z,56.25
2019-03-30T05:52:26.373Z,56.25
2019-03-30T05:53:21.116Z,61.88
2019-03-30T05:54:20.112Z,61.88
2019-03-30T05:55:20.094Z,67.50
2019-03-30T05:56:20.164Z,67.50
2019-03-30T05:57:20.115Z,73.12
2019-03-30T05:58:20.088Z,78.75
2019-03-30T05:59:20.052Z,78.75
2019-03-30T06:00:20.045Z,84.38
2019-03-30T06:01:20.038Z,95.62
2019-03-30T06:02:20.019Z,90.00
2019-03-30T06:03:20.022Z,101.25
2019-03-30T06:04:20.004Z,106.88
2019-03-30T06:05:19.993Z,112.50
2019-03-30T06:06:19.983Z,118.12
2019-03-30T06:07:19.976Z,118.12
2019-03-30T06:08:19.973Z,118.12
2019-03-30T06:09:19.948Z,123.75
2019-03-30T06:10:19.942Z,123.75
2019-03-30T06:11:19.926Z,129.38
2019-03-30T06:12:19.913Z,129.38
2019-03-30T06:13:19.933Z,135.00
2019-03-30T06:14:19.899Z,146.25
2019-03-30T06:15:19.887Z,151.88
2019-03-30T06:16:19.883Z,163.12
2019-03-30T06:17:19.865Z,168.75
2019-03-30T06:18:19.850Z,174.38
2019-03-30T06:19:19.859Z,185.62
2019-03-30T06:20:19.836Z,191.25
2019-03-30T06:21:19.818Z,202.50
2019-03-30T06:22:19.814Z,202.50
2019-03-30T06:23:19.802Z,208.12
2019-03-30T06:24:19.816Z,213.75
2019-03-30T06:25:19.782Z,219.38
2019-03-30T06:26:19.934Z,225.00
2019-03-30T06:27:19.759Z,219.38
2019-03-30T06:28:19.748Z,225.00
2019-03-30T06:29:19.738Z,219.38
2019-03-30T06:30:19.742Z,219.38
2019-03-30T06:31:19.716Z,219.38
2019-03-30T06:32:19.702Z,196.88
2019-03-30T06:33:19.695Z,236.25
2019-03-30T06:34:19.680Z,151.88
2019-03-30T06:35:19.714Z,157.50
2019-03-30T06:36:19.661Z,213.75
2019-03-30T06:37:19.656Z,241.88
2019-03-30T06:38:19.643Z,258.75
2019-03-30T06:39:19.626Z,270.00
2019-03-30T06:40:19.622Z,281.25
2019-03-30T06:41:19.619Z,298.12
2019-03-30T06:42:19.600Z,309.38
2019-03-30T06:43:19.594Z,298.12
2019-03-30T06:44:19.585Z,320.62
2019-03-30T06:45:19.563Z,337.50
2019-03-30T06:46:19.558Z,343.12
2019-03-30T06:47:19.540Z,337.50
2019-03-30T06:48:19.533Z,326.25
2019-03-30T06:49:19.528Z,292.50
2019-03-30T06:50:19.513Z,258.75
2019-03-30T06:51:19.522Z,247.50
2019-03-30T06:52:19.489Z,253.12
2019-03-30T06:53:19.483Z,286.88
2019-03-30T06:54:19.473Z,315.00
2019-03-30T06:55:19.462Z,320.62
2019-03-30T06:56:19.448Z,360.00
2019-03-30T06:57:19.446Z,393.75
2019-03-30T06:58:19.422Z,433.12
2019-03-30T06:59:19.412Z,427.50
2019-03-30T07:00:19.407Z,410.62
2019-03-30T07:01:19.398Z,376.88
2019-03-30T07:02:19.386Z,337.50
2019-03-30T07:03:19.379Z,303.75
2019-03-30T07:04:19.362Z,281.25
2019-03-30T07:05:19.347Z,275.62
2019-03-30T07:06:19.344Z,264.38
2019-03-30T07:07:19.326Z,258.75
2019-03-30T07:08:19.357Z,264.38
2019-03-30T07:09:19.319Z,270.00
2019-03-30T07:10:19.299Z,270.00
2019-03-30T07:11:21.317Z,270.00
2019-03-30T07:12:19.283Z,270.00
2019-03-30T07:13:19.277Z,270.00
2019-03-30T07:14:19.262Z,270.00
2019-03-30T07:15:19.256Z,264.38
2019-03-30T07:16:19.229Z,264.38
2019-03-30T07:17:19.222Z,264.38
2019-03-30T07:18:19.224Z,270.00
2019-03-30T07:19:19.211Z,264.38
2019-03-30T07:20:19.191Z,264.38
2019-03-30T07:21:19.175Z,264.38
2019-03-30T07:22:19.164Z,264.38
2019-03-30T07:23:19.160Z,264.38
2019-03-30T07:24:19.182Z,264.38
2019-03-30T07:25:19.144Z,258.75
2019-03-30T07:26:19.126Z,258.75
2019-03-30T07:27:19.111Z,253.12
2019-03-30T07:28:19.103Z,258.75
2019-03-30T07:29:19.093Z,253.12
2019-03-30T07:30:19.093Z,258.75
2019-03-30T07:31:19.086Z,230.62
2019-03-30T07:32:19.065Z,253.12
2019-03-30T07:33:19.051Z,253.12
2019-03-30T07:34:20.034Z,258.75
2019-03-30T07:35:19.041Z,258.75
2019-03-30T07:36:19.022Z,253.12
2019-03-30T07:37:19.014Z,258.75
2019-03-30T07:38:18.997Z,258.75
2019-03-30T07:39:18.981Z,258.75
2019-03-30T07:40:18.989Z,253.12
2019-03-30T07:41:18.977Z,253.12
2019-03-30T07:42:18.952Z,258.75
2019-03-30T07:43:18.938Z,264.38
2019-03-30T07:44:18.933Z,264.38
2019-03-30T07:45:18.918Z,270.00
2019-03-30T07:46:19.728Z,270.00
2019-03-30T07:47:18.905Z,270.00
2019-03-30T07:48:18.892Z,253.12
2019-03-30T07:49:18.879Z,275.62
2019-03-30T07:50:18.872Z,275.62
2019-03-30T07:51:18.878Z,281.25
2019-03-30T07:52:18.842Z,281.25
2019-03-30T07:53:26.226Z,286.88
2019-03-30T07:54:19.820Z,286.88
2019-03-30T07:55:18.810Z,286.88
2019-03-30T07:56:18.803Z,292.50
2019-03-30T07:57:18.804Z,292.50
2019-03-30T07:58:18.785Z,303.75
2019-03-30T07:59:18.771Z,303.75
2019-03-30T08:00:18.756Z,298.12
2019-03-30T08:01:18.754Z,292.50
2019-03-30T08:02:18.752Z,298.12
2019-03-30T08:03:18.724Z,298.12
2019-03-30T08:04:18.721Z,298.12
2019-03-30T08:05:18.708Z,303.75
2019-03-30T08:06:18.697Z,309.38
2019-03-30T08:07:18.711Z,309.38
2019-03-30T08:08:18.676Z,309.38
2019-03-30T08:09:18.670Z,309.38
2019-03-30T08:10:18.662Z,315.00
2019-03-30T08:11:18.647Z,315.00
2019-03-30T08:12:18.635Z,315.00
2019-03-30T08:13:18.625Z,315.00
2019-03-30T08:14:18.637Z,320.62
2019-03-30T08:15:18.612Z,320.62
2019-03-30T08:16:18.588Z,331.88
2019-03-30T08:17:18.598Z,331.88
2019-03-30T08:18:18.572Z,331.88
2019-03-30T08:19:21.643Z,326.25
2019-03-30T08:20:18.561Z,326.25
2019-03-30T08:21:18.538Z,326.25
2019-03-30T08:22:18.530Z,331.88
2019-03-30T08:23:18.516Z,331.88
2019-03-30T08:24:18.513Z,326.25
2019-03-30T08:25:18.497Z,343.12
2019-03-30T08:26:18.485Z,343.12
2019-03-30T08:27:18.475Z,348.75
2019-03-30T08:28:18.499Z,348.75
2019-03-30T08:29:18.446Z,337.50
2019-03-30T08:30:18.441Z,343.12
2019-03-30T08:31:18.434Z,343.12
2019-03-30T08:32:18.415Z,354.38
2019-03-30T08:33:18.415Z,360.00
2019-03-30T08:34:18.409Z,360.00
2019-03-30T08:35:18.393Z,360.00
2019-03-30T08:36:18.378Z,365.62
2019-03-30T08:37:18.370Z,365.62
2019-03-30T08:38:18.351Z,371.25
2019-03-30T08:39:18.356Z,376.88
2019-03-30T08:40:18.331Z,360.00
2019-03-30T08:41:18.325Z,354.38
2019-03-30T08:42:18.314Z,360.00
2019-03-30T08:43:18.309Z,371.25
2019-03-30T08:44:18.300Z,365.62
2019-03-30T08:45:18.288Z,371.25
2019-03-30T08:46:18.270Z,365.62
2019-03-30T08:47:18.266Z,365.62
2019-03-30T08:48:18.254Z,376.88
2019-03-30T08:49:18.263Z,376.88
2019-03-30T08:50:18.234Z,365.62
2019-03-30T08:51:20.762Z,376.88
2019-03-30T08:52:18.203Z,382.50
2019-03-30T08:53:18.204Z,382.50
2019-03-30T08:54:18.209Z,354.38
2019-03-30T08:55:18.177Z,365.62
2019-03-30T08:56:18.160Z,382.50
2019-03-30T08:57:18.152Z,382.50
2019-03-30T08:58:18.145Z,388.12
2019-03-30T08:59:18.140Z,393.75
2019-03-30T09:00:18.619Z,382.50
2019-03-30T09:01:18.137Z,371.25
2019-03-30T09:02:18.106Z,371.25
2019-03-30T09:03:18.094Z,354.38
2019-03-30T09:04:18.075Z,365.62
2019-03-30T09:05:18.074Z,365.62
2019-03-30T09:06:18.061Z,371.25
2019-03-30T09:07:18.051Z,365.62
2019-03-30T09:08:18.065Z,376.88
2019-03-30T09:09:18.028Z,382.50
2019-03-30T09:10:18.018Z,388.12
2019-03-30T09:11:18.017Z,382.50
2019-03-30T09:12:18.004Z,376.88
2019-03-30T09:13:17.986Z,371.25
2019-03-30T09:14:17.977Z,393.75
2019-03-30T09:15:17.974Z,354.38
2019-03-30T09:16:17.982Z,371.25
2019-03-30T09:17:17.943Z,393.75
2019-03-30T09:18:17.932Z,371.25
2019-03-30T09:19:22.151Z,365.62
2019-03-30T09:20:17.912Z,371.25
2019-03-30T09:21:17.906Z,376.88
2019-03-30T09:22:17.899Z,371.25
2019-03-30T09:23:17.883Z,382.50
2019-03-30T09:24:17.878Z,399.38
2019-03-30T09:25:17.858Z,421.88
2019-03-30T09:26:17.891Z,416.25
2019-03-30T09:27:17.841Z,416.25
2019-03-30T09:28:17.826Z,410.62
2019-03-30T09:29:17.821Z,405.00
2019-03-30T09:30:17.810Z,393.75
2019-03-30T09:31:17.802Z,405.00
2019-03-30T09:32:17.807Z,405.00
2019-03-30T09:33:17.779Z,416.25
2019-03-30T09:34:17.772Z,410.62
2019-03-30T09:35:17.761Z,405.00
2019-03-30T09:36:17.742Z,399.38
2019-03-30T09:37:17.747Z,388.12
2019-03-30T09:38:17.722Z,393.75
2019-03-30T09:39:17.717Z,405.00
2019-03-30T09:40:17.706Z,405.00
2019-03-30T09:41:17.694Z,388.12
2019-03-30T09:42:17.692Z,388.12
2019-03-30T09:43:17.696Z,388.12
2019-03-30T09:44:17.657Z,393.75
2019-03-30T09:45:17.693Z,382.50
2019-03-30T09:46:17.637Z,382.50
2019-03-30T09:47:17.626Z,371.25
2019-03-30T09:48:17.622Z,376.88
2019-03-30T09:49:17.609Z,382.50
2019-03-30T09:50:17.601Z,388.12
2019-03-30T09:51:17.596Z,399.38
2019-03-30T09:52:17.578Z,382.50
2019-03-30T09:53:17.568Z,399.38
2019-03-30T09:54:23.553Z,416.25
2019-03-30T09:55:18.544Z,388.12
2019-03-30T09:56:17.544Z,354.38
2019-03-30T09:57:17.521Z,360.00
2019-03-30T09:58:17.517Z,320.62
2019-03-30T09:59:17.505Z,348.75
2019-03-30T10:00:17.507Z,382.50
2019-03-30T10:01:17.484Z,382.50
2019-03-30T10:02:17.468Z,360.00
2019-03-30T10:03:17.457Z,354.38
2019-03-30T10:04:17.462Z,365.62
2019-03-30T10:05:17.437Z,337.50
2019-03-30T10:06:17.434Z,410.62
2019-03-30T10:07:17.437Z,399.38
2019-03-30T10:08:17.413Z,393.75
2019-03-30T10:09:17.403Z,399.38
2019-03-30T10:10:17.395Z,416.25
2019-03-30T10:11:17.376Z,444.38
2019-03-30T10:12:17.370Z,444.38
2019-03-30T10:13:17.358Z,433.12
2019-03-30T10:14:17.342Z,416.25
2019-03-30T10:15:17.348Z,410.62
2019-03-30T10:16:17.327Z,393.75
2019-03-30T10:17:17.324Z,388.12
2019-03-30T10:18:17.316Z,410.62
2019-03-30T10:19:17.297Z,410.62
2019-03-30T10:20:17.294Z,393.75
2019-03-30T10:21:17.292Z,410.62
2019-03-30T10:22:17.258Z,410.62
2019-03-30T10:23:17.260Z,393.75
2019-03-30T10:24:17.239Z,416.25
2019-03-30T10:25:17.234Z,421.88
2019-03-30T10:26:17.245Z,427.50
2019-03-30T10:27:17.211Z,433.12
2019-03-30T10:28:17.203Z,427.50
2019-03-30T10:29:17.186Z,433.12
2019-03-30T10:30:17.186Z,416.25
2019-03-30T10:31:17.268Z,393.75
2019-03-30T10:32:17.173Z,410.62
2019-03-30T10:33:17.180Z,388.12
2019-03-30T10:34:17.148Z,421.88
2019-03-30T10:35:17.218Z,416.25
2019-03-30T10:36:17.211Z,427.50
2019-03-30T10:37:17.101Z,410.62
2019-03-30T10:38:17.098Z,393.75
2019-03-30T10:39:17.093Z,399.38
2019-03-30T10:40:20.630Z,343.12
2019-03-30T10:41:17.066Z,399.38
2019-03-30T10:42:17.055Z,399.38
2019-03-30T10:43:17.041Z,405.00
2019-03-30T10:44:17.066Z,410.62
2019-03-30T10:45:17.028Z,421.88
2019-03-30T10:46:17.011Z,405.00
2019-03-30T10:47:16.998Z,405.00
2019-03-30T10:48:16.989Z,405.00
2019-03-30T10:49:16.999Z,399.38
2019-03-30T10:50:16.981Z,382.50
2019-03-30T10:51:16.965Z,376.88
2019-03-30T10:52:16.955Z,365.62
2019-03-30T10:53:16.946Z,371.25
2019-03-30T10:54:17.601Z,365.62
2019-03-30T10:55:16.935Z,388.12
2019-03-30T10:56:16.912Z,388.12
2019-03-30T10:57:16.905Z,382.50
2019-03-30T10:58:16.896Z,376.88
2019-03-30T10:59:16.881Z,382.50
2019-03-30T11:00:16.872Z,382.50
2019-03-30T11:01:16.870Z,382.50
2019-03-30T11:02:16.852Z,376.88
2019-03-30T11:03:16.868Z,382.50
2019-03-30T11:04:16.822Z,393.75
2019-03-30T11:05:16.820Z,376.88
2019-03-30T11:06:16.827Z,371.25
2019-03-30T11:07:16.795Z,388.12
2019-03-30T11:08:16.787Z,399.38
2019-03-30T11:09:16.785Z,388.12
2019-03-30T11:10:16.761Z,388.12
2019-03-30T11:11:16.760Z,376.88
2019-03-30T11:12:16.755Z,376.88
2019-03-30T11:13:16.734Z,371.25
2019-03-30T11:14:16.781Z,371.25
2019-03-30T11:15:16.716Z,371.25
2019-03-30T11:16:16.714Z,376.88
2019-03-30T11:17:19.318Z,376.88
2019-03-30T11:18:16.687Z,376.88
2019-03-30T11:19:16.677Z,388.12
2019-03-30T11:20:16.667Z,388.12
2019-03-30T11:21:16.662Z,382.50
2019-03-30T11:22:16.668Z,365.62
2019-03-30T11:23:16.638Z,382.50
2019-03-30T11:24:16.626Z,393.75
2019-03-30T11:25:16.616Z,393.75
2019-03-30T11:26:16.615Z,393.75
2019-03-30T11:27:17.248Z,393.75
2019-03-30T11:28:16.619Z,393.75
2019-03-30T11:29:16.577Z,399.38
2019-03-30T11:30:16.574Z,405.00
2019-03-30T11:31:16.565Z,416.25
2019-03-30T11:32:16.544Z,416.25
2019-03-30T11:33:16.543Z,427.50
2019-03-30T11:34:16.527Z,433.12
2019-03-30T11:35:16.515Z,438.75
2019-03-30T11:36:18.688Z,444.38
2019-03-30T11:37:16.489Z,450.00
2019-03-30T11:38:16.483Z,450.00
2019-03-30T11:39:16.475Z,455.62
2019-03-30T11:40:16.463Z,483.75
2019-03-30T11:41:16.455Z,523.12
2019-03-30T11:42:16.565Z,590.62
2019-03-30T11:43:16.431Z,697.50
2019-03-30T11:44:16.424Z,1035.00
2019-03-30T11:45:16.408Z,1372.50
2019-03-30T11:46:16.408Z,1501.88
2019-03-30T11:47:16.412Z,1828.12
2019-03-30T11:48:16.383Z,2070.00
2019-03-30T11:49:16.368Z,2328.75
2019-03-30T11:50:16.359Z,2503.12
2019-03-30T11:51:16.355Z,2413.12
2019-03-30T11:52:16.376Z,2283.75
2019-03-30T11:53:16.329Z,2255.62
2019-03-30T11:54:16.326Z,2520.00
2019-03-30T11:55:22.194Z,2497.50
2019-03-30T11:56:17.307Z,2182.50
2019-03-30T11:57:16.290Z,2340.00
2019-03-30T11:58:16.296Z,2345.62
2019-03-30T11:59:16.266Z,2317.50
2019-03-30T12:00:16.262Z,2356.88
2019-03-30T12:01:16.246Z,2373.75
2019-03-30T12:02:27.278Z,2435.62
2019-03-30T12:03:17.236Z,2340.00
2019-03-30T12:04:16.224Z,2401.88
2019-03-30T12:05:16.206Z,2542.50
2019-03-30T12:06:16.201Z,2390.62
2019-03-30T12:07:16.190Z,2283.75
2019-03-30T12:08:16.179Z,2289.38
2019-03-30T12:09:16.478Z,2295.00
2019-03-30T12:10:16.155Z,2171.25
2019-03-30T12:11:16.171Z,2295.00
2019-03-30T12:12:16.134Z,2480.62
2019-03-30T12:13:16.130Z,2441.25
2019-03-30T12:14:16.129Z,2401.88
2019-03-30T12:15:16.117Z,2334.38
2019-03-30T12:16:16.105Z,2255.62
2019-03-30T12:17:16.096Z,2188.12
2019-03-30T12:18:16.080Z,2317.50
2019-03-30T12:19:16.079Z,2570.62
2019-03-30T12:20:16.062Z,2542.50
2019-03-30T12:21:16.065Z,2480.62
2019-03-30T12:22:16.034Z,2548.12
2019-03-30T12:23:16.024Z,2632.50
2019-03-30T12:24:16.028Z,2306.25
2019-03-30T12:25:16.008Z,2120.62
2019-03-30T12:26:16.235Z,2328.75
2019-03-30T12:27:16.000Z,2435.62
2019-03-30T12:28:15.984Z,2306.25
2019-03-30T12:29:15.965Z,2351.25
2019-03-30T12:30:15.969Z,2430.00
2019-03-30T12:31:15.945Z,2390.62
2019-03-30T12:32:15.947Z,2317.50
2019-03-30T12:33:15.936Z,2390.62
2019-03-30T12:34:15.917Z,2418.75
2019-03-30T12:35:15.911Z,2458.12
2019-03-30T12:36:16.123Z,2266.88
2019-03-30T12:37:15.897Z,2255.62
2019-03-30T12:38:15.871Z,2390.62
2019-03-30T12:39:15.877Z,2610.00
2019-03-30T12:40:15.855Z,2626.88
2019-03-30T12:41:15.846Z,2390.62
2019-03-30T12:42:15.857Z,1845.00
2019-03-30T12:43:15.823Z,1940.62
2019-03-30T12:44:15.814Z,2064.38
2019-03-30T12:45:15.815Z,2064.38
2019-03-30T12:46:15.790Z,2233.12
2019-03-30T12:47:15.784Z,1552.50
2019-03-30T12:48:15.812Z,1620.00
2019-03-30T12:49:15.767Z,1254.38
2019-03-30T12:50:15.754Z,1479.38
2019-03-30T12:51:15.745Z,1648.12
2019-03-30T12:52:15.730Z,1411.88
2019-03-30T12:53:15.716Z,1355.62
2019-03-30T12:54:15.721Z,1125.00
2019-03-30T12:55:15.699Z,1372.50
2019-03-30T12:56:15.687Z,1434.38
2019-03-30T12:57:15.686Z,1265.62
2019-03-30T12:58:15.665Z,1524.38
2019-03-30T12:59:15.672Z,1490.62
2019-03-30T13:00:15.646Z,1541.25
2019-03-30T13:01:15.776Z,663.75
2019-03-30T13:02:15.631Z,596.25
2019-03-30T13:03:15.621Z,511.88
2019-03-30T13:04:15.608Z,1040.62
2019-03-30T13:05:15.650Z,939.38
2019-03-30T13:06:15.609Z,1743.75
2019-03-30T13:07:15.571Z,1833.75
2019-03-30T13:08:15.574Z,1715.62
2019-03-30T13:09:15.556Z,1254.38
2019-03-30T13:10:15.545Z,1057.50
2019-03-30T13:11:15.557Z,1074.38
2019-03-30T13:12:15.527Z,590.62
2019-03-30T13:13:15.518Z,635.62
2019-03-30T13:14:15.502Z,624.38
2019-03-30T13:15:15.500Z,736.88
2019-03-30T13:16:15.484Z,1068.75
2019-03-30T13:17:15.499Z,978.75
2019-03-30T13:18:15.463Z,916.88
2019-03-30T13:19:15.448Z,798.75
2019-03-30T13:20:15.441Z,545.62
2019-03-30T13:21:15.430Z,337.50
2019-03-30T13:22:15.415Z,618.75
2019-03-30T13:23:15.440Z,613.12
2019-03-30T13:24:15.392Z,725.62
2019-03-30T13:25:15.392Z,641.25
2019-03-30T13:26:15.376Z,523.12
2019-03-30T13:27:16.197Z,1035.00
2019-03-30T13:28:15.355Z,978.75
2019-03-30T13:29:15.352Z,1355.62
2019-03-30T13:30:15.338Z,973.12
2019-03-30T13:31:15.329Z,1518.75
2019-03-30T13:32:15.716Z,1794.38
2019-03-30T13:33:15.305Z,1636.88
2019-03-30T13:34:15.285Z,1569.38
2019-03-30T13:35:15.280Z,1507.50
2019-03-30T13:36:15.329Z,1625.62
2019-03-30T13:37:16.197Z,1063.12
2019-03-30T13:38:15.426Z,421.88
2019-03-30T13:39:15.251Z,753.75
2019-03-30T13:40:15.226Z,961.88
2019-03-30T13:41:15.216Z,922.50
2019-03-30T13:42:15.203Z,725.62
2019-03-30T13:43:15.203Z,810.00
2019-03-30T13:44:15.186Z,1130.62
2019-03-30T13:45:15.166Z,1158.75
2019-03-30T13:46:15.170Z,1018.12
2019-03-30T13:47:15.150Z,652.50
2019-03-30T13:48:15.139Z,596.25
2019-03-30T13:49:15.136Z,646.88
2019-03-30T13:50:15.114Z,641.25
2019-03-30T13:51:15.147Z,624.38
2019-03-30T13:52:15.096Z,444.38
2019-03-30T13:53:15.085Z,613.12
2019-03-30T13:54:15.078Z,551.25
2019-03-30T13:55:15.330Z,1074.38
2019-03-30T13:56:17.461Z,838.12
2019-03-30T13:57:15.052Z,556.88
2019-03-30T13:58:15.029Z,410.62
2019-03-30T13:59:15.027Z,230.62
2019-03-30T14:00:15.072Z,219.38
2019-03-30T14:01:14.999Z,202.50
2019-03-30T14:02:14.986Z,196.88
2019-03-30T14:03:14.975Z,185.62
2019-03-30T14:04:14.968Z,185.62
2019-03-30T14:05:14.962Z,185.62
2019-03-30T14:06:14.961Z,191.25
2019-03-30T14:07:14.940Z,180.00
2019-03-30T14:08:14.928Z,191.25
2019-03-30T14:09:14.918Z,191.25
2019-03-30T14:10:15.679Z,191.25
2019-03-30T14:11:14.903Z,191.25
2019-03-30T14:12:14.879Z,185.62
2019-03-30T14:13:14.871Z,180.00
2019-03-30T14:14:14.968Z,174.38
2019-03-30T14:15:14.857Z,174.38
2019-03-30T14:16:14.850Z,168.75
2019-03-30T14:17:14.843Z,163.12
2019-03-30T14:18:14.856Z,174.38
2019-03-30T14:19:14.852Z,174.38
2019-03-30T14:20:14.816Z,174.38
2019-03-30T14:21:14.860Z,180.00
2019-03-30T14:22:14.774Z,174.38
2019-03-30T14:23:14.821Z,163.12
2019-03-30T14:24:14.817Z,168.75
2019-03-30T14:25:14.750Z,174.38
2019-03-30T14:26:14.742Z,174.38
2019-03-30T14:27:14.735Z,174.38
2019-03-30T14:28:14.778Z,174.38
2019-03-30T14:29:14.817Z,174.38
2019-03-30T14:30:14.709Z,174.38
2019-03-30T14:31:14.721Z,168.75
2019-03-30T14:32:14.679Z,168.75
2019-03-30T14:33:14.664Z,163.12
2019-03-30T14:34:14.667Z,157.50
2019-03-30T14:35:14.641Z,163.12
2019-03-30T14:36:14.636Z,157.50
2019-03-30T14:37:14.612Z,157.50
2019-03-30T14:38:14.604Z,151.88
2019-03-30T14:39:14.593Z,157.50
2019-03-30T14:40:14.598Z,163.12
2019-03-30T14:41:14.573Z,157.50
2019-03-30T14:42:14.560Z,157.50
2019-03-30T14:43:14.556Z,168.75
2019-03-30T14:44:14.702Z,168.75
2019-03-30T14:45:14.630Z,163.12
2019-03-30T14:46:14.528Z,163.12
2019-03-30T14:47:14.504Z,146.25
2019-03-30T14:48:14.503Z,140.62
2019-03-30T14:49:14.550Z,140.62
2019-03-30T14:50:14.734Z,191.25
2019-03-30T14:51:14.462Z,286.88
2019-03-30T14:52:14.462Z,545.62
2019-03-30T14:53:14.585Z,455.62
2019-03-30T14:54:14.452Z,506.25
2019-03-30T14:55:14.434Z,506.25
2019-03-30T14:56:14.414Z,663.75
2019-03-30T14:57:14.404Z,607.50
2019-03-30T14:58:14.398Z,540.00
2019-03-30T14:59:14.671Z,506.25
2019-03-30T15:00:14.427Z,545.62
2019-03-30T15:01:14.356Z,601.88
2019-03-30T15:02:14.353Z,376.88
2019-03-30T15:03:14.344Z,461.25
2019-03-30T15:04:14.324Z,444.38
2019-03-30T15:05:14.328Z,337.50
2019-03-30T15:06:14.320Z,275.62
2019-03-30T15:07:14.298Z,129.38
2019-03-30T15:08:14.285Z,123.75
2019-03-30T15:09:14.271Z,163.12
2019-03-30T15:10:14.262Z,309.38
2019-03-30T15:11:14.281Z,551.25
2019-03-30T15:12:14.256Z,641.25
2019-03-30T15:13:14.233Z,506.25
2019-03-30T15:14:14.225Z,230.62
2019-03-30T15:15:14.216Z,112.50
2019-03-30T15:16:14.201Z,118.12
2019-03-30T15:17:14.202Z,202.50
2019-03-30T15:18:14.181Z,275.62
2019-03-30T15:19:14.168Z,174.38
2019-03-30T15:20:14.181Z,101.25
2019-03-30T15:21:14.149Z,101.25
2019-03-30T15:22:14.195Z,95.62
2019-03-30T15:23:14.125Z,95.62
2019-03-30T15:24:14.119Z,95.62
2019-03-30T15:25:14.106Z,95.62
2019-03-30T15:26:14.097Z,95.62
2019-03-30T15:27:14.088Z,95.62
2019-03-30T15:28:14.083Z,95.62
2019-03-30T15:29:14.058Z,95.62
2019-03-30T15:30:14.048Z,95.62
2019-03-30T15:31:14.044Z,95.62
2019-03-30T15:32:14.242Z,95.62
2019-03-30T15:33:14.036Z,90.00
2019-03-30T15:34:14.007Z,90.00
2019-03-30T15:35:13.998Z,90.00
2019-03-30T15:36:13.988Z,90.00
2019-03-30T15:37:13.986Z,90.00
2019-03-30T15:38:13.970Z,90.00
2019-03-30T15:39:13.961Z,84.38
2019-03-30T15:40:13.939Z,84.38
2019-03-30T15:41:13.932Z,84.38
2019-03-30T15:42:13.949Z,84.38
2019-03-30T15:43:13.931Z,84.38
2019-03-30T15:44:13.917Z,84.38
2019-03-30T15:45:13.893Z,84.38
2019-03-30T15:46:14.429Z,84.38
2019-03-30T15:47:13.870Z,84.38
2019-03-30T15:48:13.859Z,78.75
2019-03-30T15:49:13.856Z,78.75
2019-03-30T15:50:13.831Z,78.75
2019-03-30T15:51:13.820Z,78.75
2019-03-30T15:52:14.474Z,78.75
2019-03-30T15:53:13.800Z,78.75
2019-03-30T15:54:13.823Z,78.75
2019-03-30T15:55:13.793Z,78.75
2019-03-30T15:56:13.774Z,78.75
2019-03-30T15:57:14.562Z,73.12
2019-03-30T15:58:13.747Z,73.12
2019-03-30T15:59:13.733Z,73.12
2019-03-30T16:00:13.755Z,73.12
2019-03-30T16:01:13.725Z,73.12
2019-03-30T16:02:13.702Z,67.50
2019-03-30T16:03:13.698Z,67.50
2019-03-30T16:04:13.687Z,67.50
2019-03-30T16:05:15.676Z,67.50
2019-03-30T16:06:13.666Z,67.50
2019-03-30T16:07:13.648Z,67.50
2019-03-30T16:08:13.643Z,67.50
2019-03-30T16:09:13.627Z,67.50
2019-03-30T16:10:13.626Z,61.88
2019-03-30T16:11:13.626Z,61.88
2019-03-30T16:12:13.613Z,61.88
2019-03-30T16:13:14.785Z,61.88
2019-03-30T16:14:13.580Z,61.88
2019-03-30T16:15:13.570Z,61.88
2019-03-30T16:16:13.591Z,61.88
2019-03-30T16:17:15.015Z,61.88
2019-03-30T16:18:13.547Z,56.25
2019-03-30T16:19:13.521Z,56.25
2019-03-30T16:20:13.508Z,56.25
2019-03-30T16:21:13.511Z,56.25
2019-03-30T16:22:13.533Z,56.25
2019-03-30T16:23:13.484Z,56.25
2019-03-30T16:24:13.653Z,50.62
2019-03-30T16:25:13.513Z,50.62
2019-03-30T16:26:13.449Z,50.62
2019-03-30T16:27:27.818Z,50.62
2019-03-30T16:28:14.447Z,50.62
2019-03-30T16:29:13.421Z,50.62
2019-03-30T16:30:13.568Z,50.62
2019-03-30T16:31:13.388Z,45.00
2019-03-30T16:32:16.777Z,45.00
2019-03-30T16:33:20.473Z,45.00
2019-03-30T16:34:13.357Z,45.00
2019-03-30T16:35:13.345Z,45.00
2019-03-30T16:36:13.336Z,45.00
2019-03-30T16:37:13.330Z,45.00
2019-03-30T16:38:13.352Z,39.38
2019-03-30T16:39:13.308Z,39.38
2019-03-30T16:40:13.298Z,39.38
2019-03-30T16:41:13.283Z,39.38
2019-03-30T16:42:13.293Z,33.75
2019-03-30T16:43:13.266Z,33.75
2019-03-30T16:44:13.256Z,33.75
2019-03-30T16:45:13.243Z,33.75
2019-03-30T16:46:13.231Z,33.75
2019-03-30T16:47:13.223Z,33.75
2019-03-30T16:48:14.853Z,28.12
2019-03-30T16:49:13.230Z,28.12
2019-03-30T16:50:13.185Z,28.12
2019-03-30T16:51:13.176Z,28.12
2019-03-30T16:52:13.175Z,28.12
2019-03-30T16:53:13.152Z,28.12
2019-03-30T16:54:13.141Z,28.12
2019-03-30T16:55:13.141Z,22.50
2019-03-30T16:56:13.122Z,22.50
2019-03-30T16:57:13.113Z,22.50
2019-03-30T16:58:13.101Z,22.50
2019-03-30T16:59:14.001Z,22.50
2019-03-30T17:00:13.116Z,22.50
2019-03-30T17:01:13.063Z,22.50
2019-03-30T17:02:13.052Z,16.88
2019-03-30T17:03:13.046Z,16.88
2019-03-30T17:04:13.035Z,16.88
2019-03-30T17:05:13.027Z,16.88
2019-03-30T17:06:13.024Z,16.88
2019-03-30T17:07:12.999Z,16.88
2019-03-30T17:08:13.114Z,16.88
2019-03-30T17:09:12.983Z,16.88
2019-03-30T17:10:12.980Z,16.88
2019-03-30T17:11:12.971Z,16.88
2019-03-30T17:12:12.959Z,11.25
2019-03-30T17:13:12.976Z,11.25
2019-03-30T17:14:12.975Z,11.25
2019-03-30T17:15:12.923Z,11.25
2019-03-30T17:16:12.975Z,11.25
2019-03-30T17:17:12.922Z,11.25